VIJP/JAI METAR and TAF weather

Enter ICAO airport designator
Station Type Date Time Source
VIJP METAR 2020/01/26 19:00 UTC NOAA

VIJP 261900Z 07004KT 2500 HZ FEW030 15/07 Q1013 NOSIG


Station Type Date Time Source
VIJP Decoded METAR 2020/01/26 19:00 UTC NOAA

Jaipur / Sanganer, India (VIJP) 26-49N 075-48E 390M
Jan 26, 2020 - 02:00 PM EST / 2020.01.26 1900 UTC
Wind: from the ENE (070 degrees) at 5 MPH (4 KT):0
Visibility: 1 mile(s):0
Sky conditions: mostly clear
Weather: haze
Temperature: 59 F (15 C)
Dew Point: 44 F (7 C)
Relative Humidity: 58%
Pressure (altimeter): 29.91 in. Hg (1013 hPa)
ob: VIJP 261900Z 07004KT 2500 HZ FEW030 15/07 Q1013 NOSIG
cycle: 19

Station Type Date Time Source
VIJP TAF 2020/01/26 18:00 UTC NOAA

TAF VIJP 261700Z 2618/2724 VRB02KT 2000 HZ FU FEW035
BECMG 2700/2702 00000KT 1500 FU FEW035 SCT100
BECMG 2704/2706 29005KT 3000 HZ
BECMG 2707/2708 5000 HZ
BECMG 2712/2714 VRB02KT 3000 HZ

Example: see airport list